aviador You're here:

KCLK Decoded Metar

CLINTON in OK, USA
Report Time2017-10-22 06:15:00
UTC Time2017-10-22 06:21:24
Flight Rules vfr VFR
Wind350° at 07 kt
W.Decomp.*RWY 35: 6.9 kt HW 0.9 kt LCW
RWY 31: 5.9 kt HW 3.8 kt RCW
W.Rank350° ranks 8
Current wind is below 350° avg. (9.9)
Visibility9999 m
Phenomena:N/A
Clouds:N/A
Expected CloudBase > 2,800 ft AGL from Temp-Dew spread
CeilingNone
Temp12°C (ISA 0)
Dew Point05°C (63% RH)
AAT8.4°C
QNH1018 hPa
Density Alt1,594 ft
Elevation1,614 ft
Report Wrong Elevation
Raw Report
KCLK 220615Z AUTO 35007KT 10SM CLR 12/05 A3006 RMK AO2=

Extra information for KCLK:More info

Metar Taf Metar & Taf Last 4 Metars F.Rules Stats Wind Profile Meteogram Temp Stats Airport Information Weather charts Add Link Nearby VenuesMetar ALERT Operation Metar Decoded Social comments

AIRNAV info for KCLK